createdAt,value
2016-10-07T00:00:49.939Z,0
2016-10-07T00:01:59.859Z,0
2016-10-07T00:03:09.872Z,0
2016-10-07T00:04:19.790Z,0
2016-10-07T00:05:29.704Z,0
2016-10-07T00:06:39.543Z,0
2016-10-07T00:07:49.364Z,0
2016-10-07T00:09:14.003Z,0
2016-10-07T00:11:48.231Z,0
2016-10-07T00:12:58.053Z,0
2016-10-07T00:14:08.129Z,0
2016-10-07T00:15:17.951Z,0
2016-10-07T00:16:27.773Z,0
2016-10-07T00:17:37.597Z,0
2016-10-07T00:18:47.420Z,0
2016-10-07T00:19:57.248Z,0
2016-10-07T00:21:07.076Z,0
2016-10-07T00:22:16.897Z,0
2016-10-07T00:23:26.720Z,0
2016-10-07T00:24:36.549Z,0
2016-10-07T00:27:10.774Z,0
2016-10-07T00:28:20.599Z,0
2016-10-07T00:29:30.432Z,0
2016-10-07T00:30:54.826Z,0
2016-10-07T00:32:04.652Z,0
2016-10-07T00:33:14.473Z,0
2016-10-07T00:34:24.295Z,0
2016-10-07T00:35:34.119Z,0
2016-10-07T00:36:43.946Z,0
2016-10-07T00:37:53.772Z,0
2016-10-07T00:39:03.613Z,0
2016-10-07T00:40:13.934Z,0
2016-10-07T00:41:23.757Z,0
2016-10-07T00:42:48.148Z,0
2016-10-07T00:43:58.446Z,0
2016-10-07T00:45:08.272Z,0
2016-10-07T00:46:18.093Z,0
2016-10-07T00:47:42.735Z,0
2016-10-07T00:48:52.578Z,0
2016-10-07T00:50:16.966Z,0
2016-10-07T00:51:26.788Z,0
2016-10-07T00:52:36.615Z,0
2016-10-07T00:53:46.690Z,0
2016-10-07T00:54:56.514Z,0
2016-10-07T00:56:06.340Z,0
2016-10-07T00:57:16.164Z,0
2016-10-07T00:58:25.989Z,0
2016-10-07T00:59:35.817Z,0
2016-10-07T01:00:45.645Z,0
2016-10-07T01:01:55.608Z,0
2016-10-07T01:03:05.432Z,0
2016-10-07T01:04:15.253Z,0
2016-10-07T01:05:25.347Z,0
2016-10-07T01:06:35.178Z,0
2016-10-07T01:07:45.000Z,0
2016-10-07T01:08:54.832Z,0
2016-10-07T01:10:04.677Z,0
2016-10-07T01:11:14.761Z,0
2016-10-07T01:12:24.591Z,0
2016-10-07T01:13:34.414Z,0
2016-10-07T01:14:44.237Z,0
2016-10-07T01:15:54.076Z,0
2016-10-07T01:17:03.898Z,0
2016-10-07T01:18:13.719Z,0
2016-10-07T01:19:23.541Z,0
2016-10-07T01:20:33.363Z,0
2016-10-07T01:21:58.000Z,0
2016-10-07T01:23:07.823Z,0
2016-10-07T01:24:17.652Z,0
2016-10-07T01:25:27.476Z,0
2016-10-07T01:26:37.300Z,0
2016-10-07T01:27:47.374Z,0
2016-10-07T01:28:57.198Z,0
2016-10-07T01:30:07.018Z,0
2016-10-07T01:31:17.323Z,0
2016-10-07T01:32:27.150Z,0
2016-10-07T01:33:37.275Z,0
2016-10-07T01:34:47.100Z,0
2016-10-07T01:36:11.494Z,0
2016-10-07T01:37:21.319Z,0
2016-10-07T01:38:31.161Z,0
2016-10-07T01:39:41.461Z,0
2016-10-07T01:40:51.287Z,0
2016-10-07T01:42:01.113Z,0
2016-10-07T01:43:10.935Z,0
2016-10-07T01:44:21.007Z,0
2016-10-07T01:45:30.832Z,0
2016-10-07T01:46:40.655Z,0
2016-10-07T01:47:50.485Z,0
2016-10-07T01:49:00.308Z,0
2016-10-07T01:50:10.432Z,0
2016-10-07T01:51:20.256Z,0
2016-10-07T01:52:30.086Z,0
2016-10-07T01:53:39.909Z,0
2016-10-07T01:54:49.737Z,0
2016-10-07T01:55:59.575Z,0
2016-10-07T01:57:09.407Z,0
2016-10-07T01:58:19.234Z,0
2016-10-07T01:59:29.058Z,0
2016-10-07T02:00:38.882Z,0
2016-10-07T02:02:03.274Z,0
2016-10-07T02:03:13.094Z,0
2016-10-07T02:04:22.917Z,0
2016-10-07T02:05:32.738Z,0
2016-10-07T02:06:42.566Z,0
2016-10-07T02:07:52.872Z,0
2016-10-07T02:09:02.695Z,0
2016-10-07T02:10:27.084Z,0
2016-10-07T02:11:36.908Z,0
2016-10-07T02:12:46.735Z,0
2016-10-07T02:13:56.566Z,0
2016-10-07T02:15:06.389Z,0
2016-10-07T02:16:16.217Z,0
2016-10-07T02:17:26.043Z,0
2016-10-07T02:18:35.864Z,0
2016-10-07T02:19:45.688Z,0
2016-10-07T02:20:55.511Z,0
2016-10-07T02:22:05.334Z,0
2016-10-07T02:23:15.168Z,0
2016-10-07T02:24:24.993Z,0
2016-10-07T02:25:34.831Z,0
2016-10-07T02:26:44.654Z,0
2016-10-07T02:27:54.480Z,0
2016-10-07T02:29:04.304Z,0
2016-10-07T02:30:14.140Z,0
2016-10-07T02:32:48.353Z,0
2016-10-07T02:33:58.175Z,0
2016-10-07T02:35:08.097Z,0
2016-10-07T02:36:17.923Z,0
2016-10-07T02:37:27.764Z,0
2016-10-07T02:38:37.587Z,0
2016-10-07T02:39:47.414Z,0
2016-10-07T02:40:57.486Z,0
2016-10-07T02:42:07.309Z,0
2016-10-07T02:43:17.607Z,0
2016-10-07T02:44:27.435Z,0
2016-10-07T02:45:37.259Z,0
2016-10-07T02:46:47.096Z,0
2016-10-07T02:47:57.446Z,0
2016-10-07T02:49:07.267Z,0
2016-10-07T02:50:31.655Z,0
2016-10-07T02:51:41.481Z,0
2016-10-07T02:52:51.308Z,0
2016-10-07T02:54:01.131Z,0
2016-10-07T02:55:10.954Z,0
2016-10-07T02:56:35.344Z,0
2016-10-07T02:57:45.276Z,0
2016-10-07T02:58:55.106Z,0
2016-10-07T03:00:19.497Z,0
2016-10-07T03:01:29.320Z,0
2016-10-07T03:05:27.927Z,0
2016-10-07T03:06:37.752Z,0
2016-10-07T03:07:47.836Z,0
2016-10-07T03:08:57.662Z,0
2016-10-07T03:10:07.484Z,0
2016-10-07T03:11:17.308Z,0
2016-10-07T03:12:27.132Z,0
2016-10-07T03:13:37.205Z,0
2016-10-07T03:14:47.032Z,0
2016-10-07T03:15:56.859Z,0
2016-10-07T03:17:07.159Z,0
2016-10-07T03:18:16.983Z,0
2016-10-07T03:19:26.911Z,0
2016-10-07T03:20:36.734Z,0
2016-10-07T03:21:46.556Z,0
2016-10-07T03:22:56.383Z,0
2016-10-07T03:24:06.203Z,0
2016-10-07T03:25:16.029Z,0
2016-10-07T03:26:25.866Z,0
2016-10-07T03:27:35.693Z,0
2016-10-07T03:28:45.990Z,0
2016-10-07T03:29:55.815Z,0
2016-10-07T03:31:05.889Z,0
2016-10-07T03:32:15.715Z,0
2016-10-07T03:33:26.024Z,0
2016-10-07T03:34:35.855Z,0
2016-10-07T03:35:45.679Z,0
2016-10-07T03:36:55.615Z,0
2016-10-07T03:38:05.436Z,0
2016-10-07T03:39:15.745Z,0
2016-10-07T03:40:26.044Z,0
2016-10-07T03:41:50.435Z,0
2016-10-07T03:43:00.298Z,0
2016-10-07T03:44:10.194Z,0
2016-10-07T03:45:20.094Z,0
2016-10-07T03:46:30.008Z,0
2016-10-07T03:47:40.003Z,0
2016-10-07T03:48:50.388Z,0
2016-10-07T03:50:00.286Z,0
2016-10-07T03:51:10.187Z,0
2016-10-07T03:52:34.881Z,0
2016-10-07T03:53:44.790Z,0
2016-10-07T03:56:20.098Z,0
2016-10-07T03:57:29.995Z,0
2016-10-07T03:58:39.897Z,0
2016-10-07T03:59:49.794Z,0
2016-10-07T04:00:59.690Z,0
2016-10-07T04:02:09.591Z,0
2016-10-07T04:03:19.974Z,0
2016-10-07T04:04:30.371Z,0
2016-10-07T04:07:19.747Z,0
2016-10-07T04:08:30.129Z,0
2016-10-07T04:09:54.824Z,0
2016-10-07T04:11:04.719Z,0
2016-10-07T04:12:14.616Z,0
2016-10-07T04:13:24.512Z,0
2016-10-07T04:14:34.915Z,0
2016-10-07T04:15:44.815Z,0
2016-10-07T04:17:09.280Z,0
2016-10-07T04:18:33.727Z,0
2016-10-07T04:19:43.719Z,0
2016-10-07T04:20:54.102Z,0
2016-10-07T04:22:03.999Z,0
2016-10-07T04:23:14.377Z,0
2016-10-07T04:24:38.819Z,0
2016-10-07T04:25:48.723Z,0
2016-10-07T04:26:59.119Z,0
2016-10-07T04:28:09.018Z,0
2016-10-07T04:29:18.912Z,0
2016-10-07T04:30:29.067Z,0
2016-10-07T04:31:38.964Z,0
2016-10-07T04:32:48.861Z,0
2016-10-07T04:33:59.246Z,0
2016-10-07T04:35:09.625Z,0
2016-10-07T04:36:19.520Z,0
2016-10-07T04:37:29.416Z,0
2016-10-07T04:38:39.307Z,0
2016-10-07T04:39:49.202Z,0
2016-10-07T04:40:59.096Z,0
2016-10-07T04:42:09.245Z,0
2016-10-07T04:43:19.144Z,0
2016-10-07T04:44:29.041Z,0
2016-10-07T04:45:38.939Z,0
2016-10-07T04:46:48.835Z,0
2016-10-07T04:47:58.730Z,0
2016-10-07T04:49:08.628Z,0
2016-10-07T04:50:18.523Z,0
2016-10-07T04:51:28.418Z,0
2016-10-07T04:52:38.314Z,0
2016-10-07T04:53:48.461Z,0
2016-10-07T04:54:58.359Z,0
2016-10-07T04:56:08.254Z,0
2016-10-07T04:57:18.145Z,0
2016-10-07T04:58:28.041Z,0
2016-10-07T04:59:38.185Z,0
2016-10-07T05:00:48.083Z,0
2016-10-07T05:01:57.974Z,0
2016-10-07T05:03:22.419Z,0
2016-10-07T05:04:32.416Z,0
2016-10-07T05:05:42.313Z,0
2016-10-07T05:06:52.209Z,0
2016-10-07T05:08:02.105Z,0
2016-10-07T05:09:12.007Z,0
2016-10-07T05:10:22.002Z,0
2016-10-07T05:11:31.899Z,0
2016-10-07T05:12:41.794Z,0
2016-10-07T05:13:51.690Z,0
2016-10-07T05:15:01.600Z,0
2016-10-07T05:16:11.499Z,0
2016-10-07T05:17:21.406Z,0
2016-10-07T05:18:31.304Z,0
2016-10-07T05:19:55.748Z,0
2016-10-07T05:21:05.641Z,0
2016-10-07T05:22:15.545Z,0
2016-10-07T05:23:25.439Z,0
2016-10-07T05:24:35.337Z,0
2016-10-07T05:25:45.237Z,0
2016-10-07T05:26:55.136Z,0
2016-10-07T05:28:05.034Z,0
2016-10-07T05:29:14.936Z,0
2016-10-07T05:30:24.836Z,0
2016-10-07T05:31:34.739Z,0
2016-10-07T05:32:44.739Z,0
2016-10-07T05:33:54.637Z,0
2016-10-07T05:35:05.017Z,0
2016-10-07T05:36:14.913Z,0
2016-10-07T05:37:24.809Z,0
2016-10-07T05:38:34.702Z,0
2016-10-07T05:39:44.600Z,0
2016-10-07T05:40:54.499Z,0
2016-10-07T05:42:04.422Z,0
2016-10-07T05:43:14.315Z,0
2016-10-07T05:44:24.309Z,0
2016-10-07T05:45:34.224Z,0
2016-10-07T05:46:44.119Z,0
2016-10-07T05:47:54.016Z,0
2016-10-07T05:49:03.910Z,0
2016-10-07T05:50:13.801Z,0
2016-10-07T05:51:23.697Z,0
2016-10-07T05:52:33.591Z,0
2016-10-07T05:53:43.485Z,0
2016-10-07T05:55:08.179Z,0
2016-10-07T05:56:18.071Z,0
2016-10-07T05:57:27.967Z,0
2016-10-07T05:58:37.862Z,0
2016-10-07T05:59:47.761Z,0
2016-10-07T06:00:57.910Z,0
2016-10-07T06:02:07.802Z,0
2016-10-07T06:03:17.700Z,0
2016-10-07T06:04:27.599Z,0
2016-10-07T06:05:37.494Z,0
2016-10-07T06:06:47.496Z,0
2016-10-07T06:07:57.392Z,0
2016-10-07T06:09:07.285Z,0
2016-10-07T06:10:17.180Z,0
2016-10-07T06:11:27.072Z,0
2016-10-07T06:12:37.069Z,0
2016-10-07T06:13:46.975Z,0
2016-10-07T06:14:56.882Z,0
2016-10-07T06:16:06.778Z,0
2016-10-07T06:17:16.672Z,0
2016-10-07T06:18:26.903Z,0
2016-10-07T06:19:36.894Z,0
2016-10-07T06:21:01.407Z,0
2016-10-07T06:22:11.397Z,0
2016-10-07T06:23:21.387Z,0
2016-10-07T06:24:31.391Z,0
2016-10-07T06:25:41.879Z,0
2016-10-07T06:26:51.871Z,0
2016-10-07T06:28:01.861Z,0
2016-10-07T06:29:12.107Z,0
2016-10-07T06:30:22.097Z,0
2016-10-07T06:31:46.609Z,0
2016-10-07T06:33:11.124Z,0
2016-10-07T06:34:21.365Z,0
2016-10-07T06:35:31.361Z,0
2016-10-07T06:36:41.352Z,0
2016-10-07T06:37:51.351Z,0
2016-10-07T06:39:01.348Z,0
2016-10-07T06:40:11.339Z,0
2016-10-07T06:41:36.353Z,0
2016-10-07T06:42:46.351Z,0
2016-10-07T06:43:56.341Z,0
2016-10-07T06:45:06.582Z,0
2016-10-07T06:46:16.568Z,0
2016-10-07T06:47:26.559Z,0
2016-10-07T06:48:36.550Z,0
2016-10-07T06:49:47.035Z,0
2016-10-07T06:50:57.037Z,0
2016-10-07T06:53:45.936Z,0
2016-10-07T06:54:55.834Z,0
2016-10-07T06:56:20.277Z,0
2016-10-07T06:57:30.173Z,0
2016-10-07T06:58:40.065Z,0
2016-10-07T06:59:49.967Z,0
2016-10-07T07:00:59.857Z,0
2016-10-07T07:02:09.759Z,0
2016-10-07T07:03:19.654Z,0
2016-10-07T07:04:29.548Z,0
2016-10-07T07:05:39.443Z,0
2016-10-07T07:06:49.439Z,0
2016-10-07T07:08:13.883Z,0
2016-10-07T07:09:23.783Z,0
2016-10-07T07:10:33.681Z,0
2016-10-07T07:11:43.691Z,0
2016-10-07T07:12:53.605Z,0
2016-10-07T07:14:03.500Z,0
2016-10-07T07:15:13.392Z,0
2016-10-07T07:16:23.294Z,0
2016-10-07T07:17:33.290Z,0
2016-10-07T07:18:43.184Z,0
2016-10-07T07:20:07.639Z,0
2016-10-07T07:22:41.974Z,0
2016-10-07T07:23:51.872Z,0
2016-10-07T07:25:01.770Z,0
2016-10-07T07:26:11.670Z,0
2016-10-07T07:27:21.564Z,0
2016-10-07T07:28:31.637Z,0
2016-10-07T07:29:41.458Z,0
2016-10-07T07:30:51.280Z,0
2016-10-07T07:32:01.114Z,0
2016-10-07T07:33:10.933Z,0
2016-10-07T07:34:20.854Z,0
2016-10-07T07:35:30.672Z,0
2016-10-07T07:36:40.492Z,0
2016-10-07T07:37:50.316Z,0
2016-10-07T07:39:00.138Z,0
2016-10-07T07:40:09.958Z,0
2016-10-07T07:41:19.780Z,0
2016-10-07T07:42:29.602Z,0
2016-10-07T07:43:39.425Z,0
2016-10-07T07:44:49.246Z,0
2016-10-07T07:45:59.315Z,0
2016-10-07T07:47:09.139Z,0
2016-10-07T07:48:18.958Z,0
2016-10-07T07:49:28.785Z,0
2016-10-07T07:50:38.603Z,0
2016-10-07T07:51:48.424Z,0
2016-10-07T07:52:58.252Z,0
2016-10-07T07:54:08.070Z,0
2016-10-07T07:55:17.897Z,0
2016-10-07T07:56:27.718Z,0
2016-10-07T07:57:37.792Z,0
2016-10-07T07:58:47.623Z,0
2016-10-07T07:59:57.453Z,0
2016-10-07T08:01:07.356Z,0
2016-10-07T08:02:17.273Z,0
2016-10-07T08:03:27.284Z,0
2016-10-07T08:04:37.199Z,0
2016-10-07T08:05:47.115Z,0
2016-10-07T08:06:57.029Z,0
2016-10-07T08:08:06.986Z,0
2016-10-07T08:09:31.547Z,0
2016-10-07T08:10:41.465Z,0
2016-10-07T08:11:51.380Z,0
2016-10-07T08:13:01.296Z,0
2016-10-07T08:14:11.517Z,0
2016-10-07T08:15:21.437Z,0
2016-10-07T08:16:31.351Z,0
2016-10-07T08:17:41.283Z,0
2016-10-07T08:19:05.741Z,0
2016-10-07T08:20:15.763Z,0
2016-10-07T08:21:25.680Z,0
2016-10-07T08:22:35.598Z,0
2016-10-07T08:24:00.055Z,0
2016-10-07T08:25:24.614Z,0
2016-10-07T08:26:34.529Z,0
2016-10-07T08:27:44.448Z,0
2016-10-07T08:28:54.366Z,0
2016-10-07T08:30:04.281Z,0
2016-10-07T08:31:14.448Z,0
2016-10-07T08:32:24.364Z,0
2016-10-07T08:33:34.282Z,0
2016-10-07T08:34:44.205Z,0
2016-10-07T08:35:54.124Z,0
2016-10-07T08:37:04.142Z,0
2016-10-07T08:38:14.062Z,0
2016-10-07T08:39:23.974Z,0
2016-10-07T08:40:33.895Z,0
2016-10-07T08:41:43.815Z,0
2016-10-07T08:42:53.994Z,0
2016-10-07T08:44:03.913Z,0
2016-10-07T08:45:13.831Z,0
2016-10-07T08:46:23.746Z,0
2016-10-07T08:47:33.664Z,0
2016-10-07T08:48:43.681Z,0
2016-10-07T08:49:53.598Z,0
2016-10-07T08:51:03.512Z,0
2016-10-07T08:52:13.426Z,0
2016-10-07T08:53:23.340Z,0
2016-10-07T08:54:48.051Z,0
2016-10-07T08:55:57.971Z,0
2016-10-07T08:57:07.885Z,0
2016-10-07T08:58:17.882Z,0
2016-10-07T08:59:27.871Z,0
2016-10-07T09:00:37.868Z,0
2016-10-07T09:01:47.861Z,0
2016-10-07T09:02:57.854Z,0
2016-10-07T09:04:07.841Z,0
2016-10-07T09:05:17.830Z,0
2016-10-07T09:06:27.823Z,0
2016-10-07T09:07:37.823Z,0
2016-10-07T09:10:12.424Z,0
2016-10-07T09:11:22.316Z,0
2016-10-07T09:12:32.212Z,0
2016-10-07T09:13:42.132Z,0
2016-10-07T09:14:52.025Z,0
2016-10-07T09:16:02.021Z,0
2016-10-07T09:17:11.913Z,0
2016-10-07T09:18:21.806Z,0
2016-10-07T09:19:31.708Z,0
2016-10-07T09:20:41.604Z,0
2016-10-07T09:22:06.048Z,0
2016-10-07T09:23:15.939Z,0
2016-10-07T09:24:25.840Z,0
2016-10-07T09:25:35.741Z,0
2016-10-07T09:26:45.888Z,0
2016-10-07T09:27:55.785Z,0
2016-10-07T09:29:06.165Z,0
2016-10-07T09:30:16.059Z,5
2016-10-07T09:31:25.959Z,5
2016-10-07T09:32:35.956Z,5
2016-10-07T09:33:45.851Z,5
2016-10-07T09:34:55.747Z,5
2016-10-07T09:36:05.649Z,10
2016-10-07T09:38:39.985Z,5
2016-10-07T09:39:49.891Z,5
2016-10-07T09:40:59.792Z,5
2016-10-07T09:42:09.692Z,5
2016-10-07T09:43:19.670Z,5
2016-10-07T09:44:29.659Z,10
2016-10-07T09:45:39.651Z,10
2016-10-07T09:46:49.642Z,10
2016-10-07T09:47:59.634Z,10
2016-10-07T09:49:09.622Z,10
2016-10-07T09:50:19.858Z,10
2016-10-07T09:52:54.359Z,10
2016-10-07T09:54:18.869Z,10
2016-10-07T09:55:28.855Z,10
2016-10-07T09:56:38.845Z,10
2016-10-07T09:57:48.835Z,10
2016-10-07T09:58:58.822Z,10
2016-10-07T10:00:08.811Z,10
2016-10-07T10:01:18.807Z,10
2016-10-07T10:02:28.795Z,5
2016-10-07T10:03:38.785Z,5
2016-10-07T10:04:48.775Z,5
2016-10-07T10:05:58.766Z,5
2016-10-07T10:07:08.860Z,10
2016-10-07T10:08:18.849Z,15
2016-10-07T10:09:28.842Z,15
2016-10-07T10:10:38.842Z,15
2016-10-07T10:11:48.835Z,10
2016-10-07T10:13:13.347Z,10
2016-10-07T10:14:23.340Z,10
2016-10-07T10:15:33.330Z,10
2016-10-07T10:16:43.320Z,10
2016-10-07T10:17:53.477Z,10
2016-10-07T10:19:03.370Z,10
2016-10-07T10:20:13.264Z,10
2016-10-07T10:21:23.158Z,10
2016-10-07T10:22:47.601Z,10
2016-10-07T10:23:57.494Z,10
2016-10-07T10:25:07.399Z,10
2016-10-07T10:26:17.292Z,15
2016-10-07T10:27:27.187Z,10
2016-10-07T10:28:37.085Z,15
2016-10-07T10:29:46.991Z,20
2016-10-07T10:30:56.882Z,20
2016-10-07T10:32:06.792Z,20
2016-10-07T10:33:16.685Z,20
2016-10-07T10:34:26.580Z,20
2016-10-07T10:35:36.574Z,20
2016-10-07T10:36:46.469Z,20
2016-10-07T10:37:56.363Z,20
2016-10-07T10:39:06.258Z,20
2016-10-07T10:40:16.152Z,20
2016-10-07T10:41:26.302Z,20
2016-10-07T10:42:50.746Z,20
2016-10-07T10:44:00.639Z,20
2016-10-07T10:45:10.534Z,25
2016-10-07T10:46:20.531Z,25
2016-10-07T10:47:30.424Z,25
2016-10-07T10:48:40.320Z,25
2016-10-07T10:50:04.765Z,20
2016-10-07T10:51:14.658Z,25
2016-10-07T10:52:24.654Z,25
2016-10-07T10:53:34.552Z,25
2016-10-07T10:54:44.448Z,25
2016-10-07T10:55:54.345Z,25
2016-10-07T10:57:19.084Z,20
2016-10-07T10:58:28.988Z,25
2016-10-07T10:59:38.889Z,20
2016-10-07T11:01:03.337Z,20
2016-10-07T11:02:13.233Z,20
2016-10-07T11:03:23.227Z,20
2016-10-07T11:04:33.124Z,20
2016-10-07T11:05:43.019Z,20
2016-10-07T11:06:52.908Z,20
2016-10-07T11:08:17.348Z,20
2016-10-07T11:09:41.791Z,20
2016-10-07T11:10:51.691Z,20
2016-10-07T11:12:01.587Z,20
2016-10-07T11:14:35.926Z,20
2016-10-07T11:15:45.818Z,20
2016-10-07T11:16:55.713Z,20
2016-10-07T11:18:05.618Z,20
2016-10-07T11:19:15.512Z,20
2016-10-07T11:20:25.412Z,20
2016-10-07T11:21:35.302Z,20
2016-10-07T11:22:45.437Z,20
2016-10-07T11:23:55.875Z,20
2016-10-07T11:25:05.778Z,20
2016-10-07T11:26:15.773Z,20
2016-10-07T11:27:26.256Z,20
2016-10-07T11:28:36.263Z,20
2016-10-07T11:29:46.250Z,25
2016-10-07T11:30:56.247Z,35
2016-10-07T11:32:06.336Z,35
2016-10-07T11:33:16.331Z,35
2016-10-07T11:34:26.318Z,35
2016-10-07T11:35:36.308Z,40
2016-10-07T11:37:00.823Z,35
2016-10-07T11:38:10.824Z,30
2016-10-07T11:39:20.816Z,25
2016-10-07T11:40:45.344Z,25
2016-10-07T11:41:55.333Z,25
2016-10-07T11:43:05.321Z,25
2016-10-07T11:44:15.312Z,25
2016-10-07T11:45:25.300Z,20
2016-10-07T11:46:35.795Z,20
2016-10-07T11:47:45.780Z,20
2016-10-07T11:48:55.877Z,25
2016-10-07T11:50:05.887Z,25
2016-10-07T11:51:15.877Z,35
2016-10-07T11:52:25.866Z,35
2016-10-07T11:53:35.851Z,35
2016-10-07T11:54:45.846Z,45
2016-10-07T11:55:55.846Z,40
2016-10-07T11:57:20.364Z,35
2016-10-07T11:58:30.360Z,30
2016-10-07T11:59:40.606Z,25
2016-10-07T12:00:50.595Z,20
2016-10-07T12:03:24.943Z,20
2016-10-07T12:04:34.837Z,20
2016-10-07T12:05:44.832Z,20
2016-10-07T12:06:54.725Z,20
2016-10-07T12:08:04.620Z,20
2016-10-07T12:09:14.515Z,20
2016-10-07T12:10:24.410Z,20
2016-10-07T12:11:34.305Z,20
2016-10-07T12:12:44.197Z,20
2016-10-07T12:13:54.089Z,20
2016-10-07T12:15:03.981Z,25
2016-10-07T12:16:13.889Z,25
2016-10-07T12:17:23.885Z,30
2016-10-07T12:18:33.776Z,30
2016-10-07T12:19:43.671Z,25
2016-10-07T12:22:18.018Z,30
2016-10-07T12:23:27.915Z,30
2016-10-07T12:24:38.292Z,30
2016-10-07T12:25:48.183Z,35
2016-10-07T12:28:22.829Z,40
2016-10-07T12:29:47.278Z,40
2016-10-07T12:30:57.171Z,40
2016-10-07T12:32:21.609Z,40
2016-10-07T12:33:31.993Z,45
2016-10-07T12:34:56.436Z,55
2016-10-07T12:36:06.425Z,70
2016-10-07T12:37:16.414Z,45
2016-10-07T12:38:26.404Z,35
2016-10-07T12:39:36.413Z,35
2016-10-07T12:42:10.933Z,35
2016-10-07T12:43:21.193Z,35
2016-10-07T12:44:31.863Z,40
2016-10-07T12:45:41.853Z,40
2016-10-07T12:46:51.845Z,35
2016-10-07T12:49:26.360Z,35
2016-10-07T12:50:36.351Z,35
2016-10-07T12:51:46.344Z,35
2016-10-07T12:52:56.337Z,40
2016-10-07T12:54:06.329Z,40
2016-10-07T12:55:16.421Z,40
2016-10-07T12:56:26.415Z,40
2016-10-07T12:57:36.412Z,40
2016-10-07T12:58:46.405Z,40
2016-10-07T12:59:56.408Z,40
2016-10-07T13:01:06.660Z,40
2016-10-07T13:02:16.839Z,40
2016-10-07T13:03:26.838Z,35
2016-10-07T13:04:51.862Z,35
2016-10-07T13:06:02.602Z,35
2016-10-07T13:07:12.601Z,30
2016-10-07T13:08:24.125Z,85
2016-10-07T13:09:34.656Z,80
2016-10-07T13:10:45.193Z,75
2016-10-07T13:11:55.726Z,80
2016-10-07T13:13:06.262Z,65
2016-10-07T13:14:16.806Z,80
2016-10-07T13:15:27.344Z,80
2016-10-07T13:16:37.879Z,90
2016-10-07T13:17:48.424Z,80
2016-10-07T13:18:58.964Z,55
2016-10-07T13:20:09.529Z,40
2016-10-07T13:21:20.069Z,70
2016-10-07T13:22:30.622Z,40
2016-10-07T13:23:41.163Z,40
2016-10-07T13:24:51.693Z,50
2016-10-07T13:26:02.723Z,50
2016-10-07T13:27:13.262Z,45
2016-10-07T13:28:23.699Z,25
2016-10-07T13:29:34.141Z,30
2016-10-07T13:30:59.131Z,25
2016-10-07T13:32:09.578Z,25
2016-10-07T13:33:34.563Z,20
2016-10-07T13:34:45.006Z,20
2016-10-07T13:35:55.455Z,55
2016-10-07T13:37:06.390Z,85
2016-10-07T13:38:16.830Z,85
2016-10-07T13:39:27.282Z,25
2016-10-07T13:40:37.981Z,50
2016-10-07T13:41:48.420Z,25
2016-10-07T13:42:58.874Z,25
2016-10-07T13:44:09.319Z,85
2016-10-07T13:45:19.761Z,85
2016-10-07T13:46:31.121Z,90
2016-10-07T13:47:42.440Z,40
2016-10-07T13:48:52.764Z,55
2016-10-07T13:50:03.107Z,100
2016-10-07T13:51:13.432Z,40
2016-10-07T13:52:23.852Z,40
2016-10-07T13:53:34.177Z,40
2016-10-07T13:54:44.715Z,40
2016-10-07T13:55:55.038Z,55
2016-10-07T13:57:05.365Z,40
2016-10-07T13:58:15.691Z,35
2016-10-07T13:59:26.029Z,30
2016-10-07T14:00:36.507Z,25
2016-10-07T14:01:46.843Z,25
2016-10-07T14:02:57.164Z,25
2016-10-07T14:04:22.359Z,25
2016-10-07T14:05:32.683Z,25
2016-10-07T14:06:43.003Z,20
2016-10-07T14:07:53.330Z,25
2016-10-07T14:09:18.718Z,25
2016-10-07T14:10:43.607Z,70
2016-10-07T14:11:53.930Z,90
2016-10-07T14:13:04.252Z,90
2016-10-07T14:14:14.572Z,90
2016-10-07T14:16:49.790Z,90
2016-10-07T14:19:10.441Z,35
2016-10-07T14:20:20.766Z,50
2016-10-07T14:21:31.204Z,90
2016-10-07T14:22:41.647Z,90
2016-10-07T14:23:52.089Z,55
2016-10-07T14:25:02.532Z,85
2016-10-07T14:26:12.970Z,90
2016-10-07T14:27:23.413Z,85
2016-10-07T14:28:33.876Z,70
2016-10-07T14:29:45.216Z,90
2016-10-07T14:30:55.968Z,40
2016-10-07T14:32:06.420Z,35
2016-10-07T14:33:16.878Z,35
2016-10-07T14:34:27.316Z,40
2016-10-07T14:35:37.764Z,45
2016-10-07T14:36:48.515Z,55
2016-10-07T14:37:58.961Z,70
2016-10-07T14:39:09.405Z,100
2016-10-07T14:40:19.866Z,85
2016-10-07T14:42:55.294Z,40
2016-10-07T14:44:20.279Z,40
2016-10-07T14:45:30.721Z,40
2016-10-07T14:46:41.666Z,40
2016-10-07T14:47:52.112Z,40
2016-10-07T14:49:02.741Z,40
2016-10-07T14:50:13.187Z,40
2016-10-07T14:51:23.631Z,40
2016-10-07T14:52:34.560Z,40
2016-10-07T14:53:45.002Z,40
2016-10-07T14:54:55.410Z,40
2016-10-07T14:56:05.734Z,40
2016-10-07T14:57:16.064Z,40
2016-10-07T14:58:26.389Z,40
2016-10-07T14:59:37.016Z,55
2016-10-07T15:00:47.357Z,40
2016-10-07T15:01:57.686Z,40
2016-10-07T15:03:08.526Z,40
2016-10-07T15:04:18.854Z,40
2016-10-07T15:05:29.181Z,40
2016-10-07T15:06:39.503Z,40
2016-10-07T15:07:49.835Z,40
2016-10-07T15:09:00.159Z,40
2016-10-07T15:10:10.489Z,40
2016-10-07T15:11:21.285Z,75
2016-10-07T15:12:32.561Z,60
2016-10-07T15:13:43.094Z,40
2016-10-07T15:14:53.415Z,40
2016-10-07T15:16:04.683Z,40
2016-10-07T15:17:15.012Z,60
2016-10-07T15:18:25.344Z,45
2016-10-07T15:19:35.668Z,45
2016-10-07T15:21:00.582Z,55
2016-10-07T15:22:10.906Z,45
2016-10-07T15:23:35.794Z,50
2016-10-07T15:24:46.130Z,65
2016-10-07T15:25:56.457Z,75
2016-10-07T15:27:06.892Z,75
2016-10-07T15:28:17.219Z,70
2016-10-07T15:29:27.543Z,45
2016-10-07T15:30:37.869Z,40
2016-10-07T15:31:48.196Z,40
2016-10-07T15:32:58.745Z,40
2016-10-07T15:34:09.067Z,40
2016-10-07T15:35:33.957Z,40
2016-10-07T15:36:44.285Z,40
2016-10-07T15:37:54.710Z,45
2016-10-07T15:39:05.040Z,60
2016-10-07T15:40:15.837Z,50
2016-10-07T15:41:26.168Z,50
2016-10-07T15:42:36.489Z,45
2016-10-07T15:43:47.299Z,45
2016-10-07T15:44:57.627Z,50
2016-10-07T15:46:07.996Z,45
2016-10-07T15:47:18.322Z,50
2016-10-07T15:48:28.663Z,45
2016-10-07T15:49:38.986Z,50
2016-10-07T15:50:49.314Z,50
2016-10-07T15:52:14.206Z,55
2016-10-07T15:53:24.533Z,50
2016-10-07T15:54:34.860Z,50
2016-10-07T15:55:45.187Z,65
2016-10-07T15:56:55.511Z,50
2016-10-07T15:58:05.838Z,55
2016-10-07T15:59:16.164Z,45
2016-10-07T16:00:41.168Z,50
2016-10-07T16:01:51.506Z,55
2016-10-07T16:03:01.832Z,50
2016-10-07T16:04:12.275Z,45
2016-10-07T16:05:22.817Z,40
2016-10-07T16:06:33.268Z,40
2016-10-07T16:07:43.710Z,35
2016-10-07T16:08:54.153Z,35
2016-10-07T16:10:04.595Z,35
2016-10-07T16:11:15.047Z,45
2016-10-07T16:12:25.487Z,40
2016-10-07T16:13:35.941Z,35
2016-10-07T16:14:46.415Z,25
2016-10-07T16:15:56.856Z,25
2016-10-07T16:17:07.298Z,35
2016-10-07T16:18:17.740Z,35
2016-10-07T16:19:28.181Z,35
2016-10-07T16:20:38.623Z,30
2016-10-07T16:21:49.064Z,25
2016-10-07T16:22:59.508Z,25
2016-10-07T16:24:09.950Z,30
2016-10-07T16:25:34.947Z,30
2016-10-07T16:26:59.934Z,30
2016-10-07T16:28:25.095Z,30
2016-10-07T16:29:35.698Z,30
2016-10-07T16:30:46.410Z,30
2016-10-07T16:31:56.944Z,30
2016-10-07T16:33:07.480Z,20
2016-10-07T16:34:32.547Z,25
2016-10-07T16:37:08.147Z,30
2016-10-07T16:38:18.925Z,30
2016-10-07T16:39:29.350Z,30
2016-10-07T16:40:39.768Z,30
2016-10-07T16:41:50.184Z,30
2016-10-07T16:43:00.595Z,35
2016-10-07T16:44:11.009Z,35
2016-10-07T16:45:21.435Z,35
2016-10-07T16:46:31.849Z,35
2016-10-07T16:47:42.270Z,25
2016-10-07T16:48:52.684Z,30
2016-10-07T16:50:17.647Z,35
2016-10-07T16:51:28.567Z,40
2016-10-07T16:52:39.477Z,35
2016-10-07T16:53:49.940Z,30
2016-10-07T16:55:00.598Z,30
2016-10-07T16:56:11.007Z,25
2016-10-07T16:57:21.427Z,25
2016-10-07T16:58:31.837Z,25
2016-10-07T16:59:57.050Z,25
2016-10-07T17:01:07.467Z,25
2016-10-07T17:02:17.881Z,25
2016-10-07T17:03:28.535Z,25
2016-10-07T17:04:38.958Z,25
2016-10-07T17:05:49.623Z,25
2016-10-07T17:07:00.049Z,25
2016-10-07T17:08:10.630Z,25
2016-10-07T17:09:21.042Z,25
2016-10-07T17:10:31.454Z,25
2016-10-07T17:11:56.422Z,20
2016-10-07T17:13:06.775Z,20
2016-10-07T17:14:17.317Z,15
2016-10-07T17:15:27.643Z,15
2016-10-07T17:16:37.968Z,15
2016-10-07T17:17:48.293Z,15
2016-10-07T17:18:58.617Z,15
2016-10-07T17:20:08.945Z,15
2016-10-07T17:21:19.268Z,15
2016-10-07T17:22:30.248Z,15
2016-10-07T17:23:40.569Z,20
2016-10-07T17:24:50.900Z,20
2016-10-07T17:26:01.232Z,25
2016-10-07T17:27:11.559Z,20
2016-10-07T17:28:21.886Z,15
2016-10-07T17:29:32.206Z,25
2016-10-07T17:30:42.533Z,30
2016-10-07T17:33:18.527Z,30
2016-10-07T17:34:28.861Z,25
2016-10-07T17:35:39.687Z,25
2016-10-07T17:36:50.500Z,25
2016-10-07T17:38:01.740Z,25
2016-10-07T17:39:12.068Z,25
2016-10-07T17:40:22.446Z,25
2016-10-07T17:41:32.767Z,25
2016-10-07T17:42:43.090Z,25
2016-10-07T17:43:53.420Z,25
2016-10-07T17:45:03.746Z,25
2016-10-07T17:46:28.658Z,25
2016-10-07T17:47:53.586Z,30
2016-10-07T17:49:04.024Z,25